sensor_id;sensor_type;location;lat;lon;timestamp;pressure;altitude;pressure_sealevel;temperature;humidity
55263;BME280;41125;48.752;9.168;2022-08-06T00:00:26;97407.72;;;19.31;55.63
55263;BME280;41125;48.752;9.168;2022-08-06T00:00:57;97408.41;;;19.28;55.77
55263;BME280;41125;48.752;9.168;2022-08-06T00:01:29;97410.53;;;19.22;56.13
55263;BME280;41125;48.752;9.168;2022-08-06T00:02:00;97409.25;;;19.20;56.07
55263;BME280;41125;48.752;9.168;2022-08-06T00:02:31;97406.50;;;19.20;55.91
55263;BME280;41125;48.752;9.168;2022-08-06T00:03:01;97402.97;;;19.19;56.19
55263;BME280;41125;48.752;9.168;2022-08-06T00:03:33;97405.25;;;19.17;55.99
55263;BME280;41125;48.752;9.168;2022-08-06T00:04:04;97403.44;;;19.21;56.25
55263;BME280;41125;48.752;9.168;2022-08-06T00:04:35;97402.28;;;19.22;55.82
55263;BME280;41125;48.752;9.168;2022-08-06T00:05:08;97399.53;;;19.22;55.83
55263;BME280;41125;48.752;9.168;2022-08-06T00:05:39;97391.94;;;19.19;56.27
55263;BME280;41125;48.752;9.168;2022-08-06T00:06:10;97407.50;;;19.15;56.46
55263;BME280;41125;48.752;9.168;2022-08-06T00:06:40;97398.31;;;19.11;56.46
55263;BME280;41125;48.752;9.168;2022-08-06T00:07:12;97398.66;;;19.09;56.78
55263;BME280;41125;48.752;9.168;2022-08-06T00:07:43;97400.13;;;19.07;56.65
55263;BME280;41125;48.752;9.168;2022-08-06T00:08:13;97407.56;;;19.06;56.81
55263;BME280;41125;48.752;9.168;2022-08-06T00:08:48;97402.53;;;19.08;56.59
55263;BME280;41125;48.752;9.168;2022-08-06T00:09:19;97405.62;;;19.07;56.65
55263;BME280;41125;48.752;9.168;2022-08-06T00:09:50;97399.22;;;19.03;57.00
55263;BME280;41125;48.752;9.168;2022-08-06T00:10:23;97399.22;;;19.03;56.99
55263;BME280;41125;48.752;9.168;2022-08-06T00:10:54;97398.41;;;19.02;56.67
55263;BME280;41125;48.752;9.168;2022-08-06T00:11:25;97399.09;;;18.99;56.88
55263;BME280;41125;48.752;9.168;2022-08-06T00:11:57;97397.47;;;18.98;57.11
55263;BME280;41125;48.752;9.168;2022-08-06T00:12:30;97405.25;;;18.96;57.08
55263;BME280;41125;48.752;9.168;2022-08-06T00:13:01;97398.47;;;18.94;57.57
55263;BME280;41125;48.752;9.168;2022-08-06T00:13:32;97408.19;;;18.91;57.52
55263;BME280;41125;48.752;9.168;2022-08-06T00:14:04;97412.06;;;18.90;57.62
55263;BME280;41125;48.752;9.168;2022-08-06T00:14:35;97408.06;;;18.88;57.65
55263;BME280;41125;48.752;9.168;2022-08-06T00:15:07;97406.44;;;18.87;58.18
55263;BME280;41125;48.752;9.168;2022-08-06T00:15:38;97408.06;;;18.88;58.22
55263;BME280;41125;48.752;9.168;2022-08-06T00:16:09;97407.56;;;18.86;58.21
55263;BME280;41125;48.752;9.168;2022-08-06T00:16:41;97410.31;;;18.86;58.32
55263;BME280;41125;48.752;9.168;2022-08-06T00:17:12;97403.22;;;18.85;58.46
55263;BME280;41125;48.752;9.168;2022-08-06T00:17:44;97409.84;;;18.84;58.50
55263;BME280;41125;48.752;9.168;2022-08-06T00:18:15;97413.41;;;18.84;58.33
55263;BME280;41125;48.752;9.168;2022-08-06T00:18:46;97414.22;;;18.85;58.61
55263;BME280;41125;48.752;9.168;2022-08-06T00:19:17;97412.59;;;18.84;58.43
55263;BME280;41125;48.752;9.168;2022-08-06T00:19:48;97407.09;;;18.84;58.80
55263;BME280;41125;48.752;9.168;2022-08-06T00:20:19;97406.62;;;18.82;58.78
55263;BME280;41125;48.752;9.168;2022-08-06T00:20:50;97404.53;;;18.79;58.89
55263;BME280;41125;48.752;9.168;2022-08-06T00:21:21;97408.91;;;18.80;59.08
55263;BME280;41125;48.752;9.168;2022-08-06T00:21:52;97406.62;;;18.82;58.34
55263;BME280;41125;48.752;9.168;2022-08-06T00:22:23;97405.16;;;18.84;57.97
55263;BME280;41125;48.752;9.168;2022-08-06T00:22:53;97404.81;;;18.86;57.90
55263;BME280;41125;48.752;9.168;2022-08-06T00:23:27;97405.16;;;18.84;57.87
55263;BME280;41125;48.752;9.168;2022-08-06T00:23:58;97406.28;;;18.83;58.28
55263;BME280;41125;48.752;9.168;2022-08-06T00:24:30;97399.19;;;18.82;58.04
55263;BME280;41125;48.752;9.168;2022-08-06T00:25:01;97408.25;;;18.83;58.49
55263;BME280;41125;48.752;9.168;2022-08-06T00:25:32;97403.53;;;18.83;58.37
55263;BME280;41125;48.752;9.168;2022-08-06T00:26:03;97400.00;;;18.83;58.20
55263;BME280;41125;48.752;9.168;2022-08-06T00:26:34;97399.31;;;18.86;57.69
55263;BME280;41125;48.752;9.168;2022-08-06T00:27:08;97403.50;;;18.92;57.10
55263;BME280;41125;48.752;9.168;2022-08-06T00:27:39;97401.22;;;18.94;57.17
55263;BME280;41125;48.752;9.168;2022-08-06T00:28:10;97406.06;;;18.97;56.62
55263;BME280;41125;48.752;9.168;2022-08-06T00:28:41;97399.75;;;18.96;56.79
55263;BME280;41125;48.752;9.168;2022-08-06T00:29:12;97396.34;;;18.99;56.72
55263;BME280;41125;48.752;9.168;2022-08-06T00:29:43;97396.81;;;19.01;56.91
55263;BME280;41125;48.752;9.168;2022-08-06T00:30:14;97407.81;;;19.01;56.73
55263;BME280;41125;48.752;9.168;2022-08-06T00:30:45;97401.75;;;19.08;56.31
55263;BME280;41125;48.752;9.168;2022-08-06T00:31:16;97402.87;;;19.07;55.92
55263;BME280;41125;48.752;9.168;2022-08-06T00:31:47;97407.72;;;19.10;55.92
55263;BME280;41125;48.752;9.168;2022-08-06T00:32:18;97410.28;;;19.15;55.94
55263;BME280;41125;48.752;9.168;2022-08-06T00:32:49;97405.09;;;19.14;56.20
55263;BME280;41125;48.752;9.168;2022-08-06T00:33:20;97402.00;;;19.15;55.94
55263;BME280;41125;48.752;9.168;2022-08-06T00:33:51;97406.72;;;19.15;55.56
55263;BME280;41125;48.752;9.168;2022-08-06T00:34:22;97408.31;;;19.16;55.89
55263;BME280;41125;48.752;9.168;2022-08-06T00:34:54;97405.91;;;19.14;55.46
55263;BME280;41125;48.752;9.168;2022-08-06T00:35:24;97399.25;;;19.15;55.52
55263;BME280;41125;48.752;9.168;2022-08-06T00:35:57;97405.09;;;19.14;55.64
55263;BME280;41125;48.752;9.168;2022-08-06T00:36:28;97407.50;;;19.15;55.59
55263;BME280;41125;48.752;9.168;2022-08-06T00:36:59;97403.09;;;19.23;55.15
55263;BME280;41125;48.752;9.168;2022-08-06T00:37:31;97408.25;;;19.24;55.04
55263;BME280;41125;48.752;9.168;2022-08-06T00:38:03;97410.06;;;19.20;55.46
55263;BME280;41125;48.752;9.168;2022-08-06T00:38:33;97404.44;;;19.17;55.30
55263;BME280;41125;48.752;9.168;2022-08-06T00:39:06;97408.19;;;19.12;55.54
55263;BME280;41125;48.752;9.168;2022-08-06T00:39:37;97397.84;;;19.09;55.85
55263;BME280;41125;48.752;9.168;2022-08-06T00:40:09;97397.38;;;19.07;56.19
55263;BME280;41125;48.752;9.168;2022-08-06T00:40:42;97399.22;;;19.03;55.80
55263;BME280;41125;48.752;9.168;2022-08-06T00:41:13;97400.22;;;18.98;55.86
55263;BME280;41125;48.752;9.168;2022-08-06T00:41:45;97403.63;;;18.95;56.21
55263;BME280;41125;48.752;9.168;2022-08-06T00:42:19;97409.13;;;18.95;56.50
55263;BME280;41125;48.752;9.168;2022-08-06T00:42:50;97402.84;;;18.95;56.65
55263;BME280;41125;48.752;9.168;2022-08-06T00:43:21;97403.50;;;18.92;56.97
55263;BME280;41125;48.752;9.168;2022-08-06T00:43:53;97395.91;;;18.89;56.65
55263;BME280;41125;48.752;9.168;2022-08-06T00:44:26;97408.06;;;18.88;56.67
55263;BME280;41125;48.752;9.168;2022-08-06T00:44:58;97406.44;;;18.87;56.71
55263;BME280;41125;48.752;9.168;2022-08-06T00:45:31;97402.87;;;18.86;57.05
55263;BME280;41125;48.752;9.168;2022-08-06T00:46:03;97401.22;;;18.94;56.14
55263;BME280;41125;48.752;9.168;2022-08-06T00:46:33;97406.72;;;18.94;56.20
55263;BME280;41125;48.752;9.168;2022-08-06T00:47:05;97401.87;;;18.91;56.07
55263;BME280;41125;48.752;9.168;2022-08-06T00:47:37;97399.12;;;18.91;56.17
55263;BME280;41125;48.752;9.168;2022-08-06T00:48:08;97401.69;;;18.96;55.69
55263;BME280;41125;48.752;9.168;2022-08-06T00:48:39;97409.94;;;18.96;55.58
55263;BME280;41125;48.752;9.168;2022-08-06T00:49:10;97398.00;;;18.92;54.96
55263;BME280;41125;48.752;9.168;2022-08-06T00:49:42;97408.84;;;18.88;55.55
55263;BME280;41125;48.752;9.168;2022-08-06T00:50:13;97407.72;;;18.89;55.88
55263;BME280;41125;48.752;9.168;2022-08-06T00:50:44;97402.16;;;18.98;54.89
55263;BME280;41125;48.752;9.168;2022-08-06T00:51:15;97409.75;;;19.01;54.87
55263;BME280;41125;48.752;9.168;2022-08-06T00:51:46;97411.22;;;18.98;55.22
55263;BME280;41125;48.752;9.168;2022-08-06T00:52:18;97416.38;;;19.00;55.13
55263;BME280;41125;48.752;9.168;2022-08-06T00:52:49;97414.78;;;18.99;55.43
55263;BME280;41125;48.752;9.168;2022-08-06T00:53:22;97414.63;;;18.95;55.35
55263;BME280;41125;48.752;9.168;2022-08-06T00:53:55;97409.00;;;18.92;55.67
55263;BME280;41125;48.752;9.168;2022-08-06T00:54:28;97411.75;;;18.92;55.82
55263;BME280;41125;48.752;9.168;2022-08-06T00:55:02;97416.78;;;18.90;56.03
55263;BME280;41125;48.752;9.168;2022-08-06T00:55:33;97416.56;;;18.95;55.33
55263;BME280;41125;48.752;9.168;2022-08-06T00:56:06;97419.31;;;18.95;55.37
55263;BME280;41125;48.752;9.168;2022-08-06T00:56:36;97410.28;;;18.94;55.80
55263;BME280;41125;48.752;9.168;2022-08-06T00:57:07;97415.31;;;18.92;55.66
55263;BME280;41125;48.752;9.168;2022-08-06T00:57:38;97422.41;;;18.93;55.64
55263;BME280;41125;48.752;9.168;2022-08-06T00:58:09;97420.66;;;18.89;55.41
55263;BME280;41125;48.752;9.168;2022-08-06T00:58:40;97418.56;;;18.86;55.37
55263;BME280;41125;48.752;9.168;2022-08-06T00:59:12;97423.59;;;18.84;55.92
55263;BME280;41125;48.752;9.168;2022-08-06T00:59:43;97425.87;;;18.82;55.99
55263;BME280;41125;48.752;9.168;2022-08-06T01:00:17;97424.25;;;18.81;56.26
55263;BME280;41125;48.752;9.168;2022-08-06T01:00:47;97422.78;;;18.83;56.06
55263;BME280;41125;48.752;9.168;2022-08-06T01:01:18;97422.78;;;18.83;55.96
55263;BME280;41125;48.752;9.168;2022-08-06T01:01:49;97427.50;;;18.83;55.81
55263;BME280;41125;48.752;9.168;2022-08-06T01:02:23;97426.16;;;18.89;55.01
55263;BME280;41125;48.752;9.168;2022-08-06T01:02:54;97416.09;;;18.93;54.51
55263;BME280;41125;48.752;9.168;2022-08-06T01:03:25;97424.03;;;18.94;54.43
55263;BME280;41125;48.752;9.168;2022-08-06T01:03:56;97416.44;;;18.91;54.60
55263;BME280;41125;48.752;9.168;2022-08-06T01:04:27;97422.41;;;18.93;54.94
55263;BME280;41125;48.752;9.168;2022-08-06T01:04:57;97417.19;;;19.00;54.16
55263;BME280;41125;48.752;9.168;2022-08-06T01:05:28;97421.09;;;18.99;54.40
55263;BME280;41125;48.752;9.168;2022-08-06T01:06:03;97423.69;;;18.96;54.35
55263;BME280;41125;48.752;9.168;2022-08-06T01:06:35;97435.69;;;18.91;55.25
55263;BME280;41125;48.752;9.168;2022-08-06T01:07:05;97426.63;;;18.91;55.11
55263;BME280;41125;48.752;9.168;2022-08-06T01:07:36;97430.47;;;18.98;53.95
55263;BME280;41125;48.752;9.168;2022-08-06T01:08:07;97428.38;;;18.95;53.92
55263;BME280;41125;48.752;9.168;2022-08-06T01:08:38;97422.94;;;19.07;53.46
55263;BME280;41125;48.752;9.168;2022-08-06T01:09:09;97421.47;;;19.10;53.22
55263;BME280;41125;48.752;9.168;2022-08-06T01:09:44;97427.84;;;19.02;53.10
55263;BME280;41125;48.752;9.168;2022-08-06T01:10:15;97424.84;;;18.95;53.61
55263;BME280;41125;48.752;9.168;2022-08-06T01:10:46;97422.75;;;18.92;53.87
55263;BME280;41125;48.752;9.168;2022-08-06T01:11:20;97424.53;;;18.88;53.95
55263;BME280;41125;48.752;9.168;2022-08-06T01:11:51;97429.25;;;18.87;54.27
55263;BME280;41125;48.752;9.168;2022-08-06T01:12:22;97421.59;;;18.93;53.98
55263;BME280;41125;48.752;9.168;2022-08-06T01:12:54;97430.19;;;18.91;54.02
55263;BME280;41125;48.752;9.168;2022-08-06T01:13:24;97423.06;;;18.90;53.95
55263;BME280;41125;48.752;9.168;2022-08-06T01:13:55;97425.34;;;18.88;54.24
55263;BME280;41125;48.752;9.168;2022-08-06T01:14:26;97421.59;;;18.93;53.53
55263;BME280;41125;48.752;9.168;2022-08-06T01:14:57;97418.66;;;18.98;53.23
55263;BME280;41125;48.752;9.168;2022-08-06T01:15:28;97426.44;;;18.96;53.47
55263;BME280;41125;48.752;9.168;2022-08-06T01:16:05;97425.97;;;18.94;54.04
55263;BME280;41125;48.752;9.168;2022-08-06T01:16:48;97437.16;;;18.89;53.95
55263;BME280;41125;48.752;9.168;2022-08-06T01:17:26;97428.44;;;18.87;53.90
55263;BME280;41125;48.752;9.168;2022-08-06T01:18:00;97425.50;;;18.92;53.03
55263;BME280;41125;48.752;9.168;2022-08-06T01:19:30;97430.19;;;18.91;53.45
55263;BME280;41125;48.752;9.168;2022-08-06T01:20:17;97437.31;;;18.92;53.34
55263;BME280;41125;48.752;9.168;2022-08-06T01:21:18;97439.44;;;18.87;53.99
55263;BME280;41125;48.752;9.168;2022-08-06T01:22:01;97430.03;;;18.88;52.86
55263;BME280;41125;48.752;9.168;2022-08-06T01:23:28;97437.53;;;18.79;53.44
55263;BME280;41125;48.752;9.168;2022-08-06T01:24:15;97429.47;;;18.73;53.83
55263;BME280;41125;48.752;9.168;2022-08-06T01:25:07;97428.34;;;18.74;54.07
55263;BME280;41125;48.752;9.168;2022-08-06T01:25:58;97436.59;;;18.74;54.19
55263;BME280;41125;48.752;9.168;2022-08-06T01:27:42;97445.38;;;18.59;54.12
55263;BME280;41125;48.752;9.168;2022-08-06T01:28:16;97441.69;;;18.55;54.38
55263;BME280;41125;48.752;9.168;2022-08-06T01:29:02;97437.00;;;18.56;54.46
55263;BME280;41125;48.752;9.168;2022-08-06T01:29:35;97432.44;;;18.68;53.81
55263;BME280;41125;48.752;9.168;2022-08-06T01:30:10;97438.41;;;18.70;53.53
55263;BME280;41125;48.752;9.168;2022-08-06T01:30:48;97432.91;;;18.70;53.79
55263;BME280;41125;48.752;9.168;2022-08-06T01:31:21;97423.50;;;18.71;53.08
55263;BME280;41125;48.752;9.168;2022-08-06T01:32:53;97428.75;;;18.64;53.58
55263;BME280;41125;48.752;9.168;2022-08-06T01:33:26;97437.66;;;18.61;53.77
55263;BME280;41125;48.752;9.168;2022-08-06T01:34:05;97441.53;;;18.60;54.37
55263;BME280;41125;48.752;9.168;2022-08-06T01:34:39;97438.06;;;18.72;53.25
55263;BME280;41125;48.752;9.168;2022-08-06T01:35:16;97421.03;;;18.79;52.76
55263;BME280;41125;48.752;9.168;2022-08-06T01:35:49;97427.00;;;18.81;52.58
55263;BME280;41125;48.752;9.168;2022-08-06T01:36:30;97426.69;;;18.82;52.53
55263;BME280;41125;48.752;9.168;2022-08-06T01:37:14;97426.53;;;18.79;52.80
55263;BME280;41125;48.752;9.168;2022-08-06T01:37:50;97429.28;;;18.79;53.07
55263;BME280;41125;48.752;9.168;2022-08-06T01:38:25;97420.84;;;18.84;52.18
55263;BME280;41125;48.752;9.168;2022-08-06T01:38:57;97428.44;;;18.87;52.19
55263;BME280;41125;48.752;9.168;2022-08-06T01:39:30;97421.19;;;18.82;52.78
55263;BME280;41125;48.752;9.168;2022-08-06T01:40:04;97430.44;;;18.78;53.02
55263;BME280;41125;48.752;9.168;2022-08-06T01:40:37;97426.25;;;18.71;52.93
55263;BME280;41125;48.752;9.168;2022-08-06T01:41:13;97429.38;;;18.70;53.32
55263;BME280;41125;48.752;9.168;2022-08-06T01:42:05;97429.22;;;18.66;53.53
55263;BME280;41125;48.752;9.168;2022-08-06T01:42:43;97429.38;;;18.70;53.07
55263;BME280;41125;48.752;9.168;2022-08-06T01:43:15;97420.62;;;18.68;52.87
55263;BME280;41125;48.752;9.168;2022-08-06T01:43:48;97422.09;;;18.65;53.48
55263;BME280;41125;48.752;9.168;2022-08-06T01:44:20;97437.66;;;18.61;53.52
55263;BME280;41125;48.752;9.168;2022-08-06T01:44:52;97433.91;;;18.57;53.46
55263;BME280;41125;48.752;9.168;2022-08-06T01:45:25;97432.31;;;18.56;53.94
55263;BME280;41125;48.752;9.168;2022-08-06T01:45:57;97434.09;;;18.52;54.48
55263;BME280;41125;48.752;9.168;2022-08-06T01:46:30;97440.25;;;18.49;54.63
55263;BME280;41125;48.752;9.168;2022-08-06T01:47:05;97437.03;;;18.47;54.56
55263;BME280;41125;48.752;9.168;2022-08-06T01:47:38;97444.94;;;18.49;54.74
55263;BME280;41125;48.752;9.168;2022-08-06T01:48:14;97452.06;;;18.50;55.21
55263;BME280;41125;48.752;9.168;2022-08-06T01:48:46;97449.63;;;18.48;54.67
55263;BME280;41125;48.752;9.168;2022-08-06T01:49:19;97445.28;;;18.47;54.70
55263;BME280;41125;48.752;9.168;2022-08-06T01:49:51;97444.12;;;18.48;55.21
55263;BME280;41125;48.752;9.168;2022-08-06T01:50:25;97442.53;;;18.47;54.91
55263;BME280;41125;48.752;9.168;2022-08-06T01:50:59;97443.47;;;18.51;55.16
55263;BME280;41125;48.752;9.168;2022-08-06T01:51:32;97446.72;;;18.53;54.28
55263;BME280;41125;48.752;9.168;2022-08-06T01:52:08;97446.72;;;18.53;54.42
55263;BME280;41125;48.752;9.168;2022-08-06T01:52:42;97445.09;;;18.52;54.80
55263;BME280;41125;48.752;9.168;2022-08-06T01:53:14;97439.09;;;18.59;53.74
55263;BME280;41125;48.752;9.168;2022-08-06T01:53:46;97426.94;;;18.68;52.94
55263;BME280;41125;48.752;9.168;2022-08-06T01:54:18;97425.59;;;18.74;52.95
55263;BME280;41125;48.752;9.168;2022-08-06T01:54:49;97428.34;;;18.74;52.60
55263;BME280;41125;48.752;9.168;2022-08-06T01:55:21;97423.97;;;18.73;52.84
55263;BME280;41125;48.752;9.168;2022-08-06T01:55:53;97426.13;;;18.68;52.86
55263;BME280;41125;48.752;9.168;2022-08-06T01:56:24;97423.72;;;18.66;52.88
55263;BME280;41125;48.752;9.168;2022-08-06T01:56:56;97423.25;;;18.64;52.68
55263;BME280;41125;48.752;9.168;2022-08-06T01:57:28;97424.53;;;18.67;52.53
55263;BME280;41125;48.752;9.168;2022-08-06T01:58:03;97425.34;;;18.67;52.55
55263;BME280;41125;48.752;9.168;2022-08-06T01:58:36;97422.28;;;18.60;52.95
55263;BME280;41125;48.752;9.168;2022-08-06T01:59:09;97434.09;;;18.52;52.95
55263;BME280;41125;48.752;9.168;2022-08-06T01:59:42;97426.84;;;18.48;53.33
55263;BME280;41125;48.752;9.168;2022-08-06T02:00:14;97431.06;;;18.45;53.69
55263;BME280;41125;48.752;9.168;2022-08-06T02:00:46;97436.22;;;18.47;53.37
55263;BME280;41125;48.752;9.168;2022-08-06T02:01:18;97433.00;;;18.45;53.40
55263;BME280;41125;48.752;9.168;2022-08-06T02:01:51;97438.81;;;18.43;53.77
55263;BME280;41125;48.752;9.168;2022-08-06T02:02:23;97441.56;;;18.43;53.72
55263;BME280;41125;48.752;9.168;2022-08-06T02:02:56;97445.44;;;18.42;53.31
55263;BME280;41125;48.752;9.168;2022-08-06T02:03:35;97439.81;;;18.38;53.34
55263;BME280;41125;48.752;9.168;2022-08-06T02:04:06;97435.81;;;18.36;53.83
55263;BME280;41125;48.752;9.168;2022-08-06T02:04:39;97443.56;;;18.34;53.67
55263;BME280;41125;48.752;9.168;2022-08-06T02:05:11;97440.34;;;18.32;54.13
55263;BME280;41125;48.752;9.168;2022-08-06T02:05:43;97441.81;;;18.29;53.98
55263;BME280;41125;48.752;9.168;2022-08-06T02:06:18;97442.13;;;18.28;54.48
55263;BME280;41125;48.752;9.168;2022-08-06T02:06:50;97445.84;;;18.32;54.50
55263;BME280;41125;48.752;9.168;2022-08-06T02:07:24;97443.56;;;18.34;54.58
55263;BME280;41125;48.752;9.168;2022-08-06T02:07:56;97441.16;;;18.32;54.52
55263;BME280;41125;48.752;9.168;2022-08-06T02:08:29;97438.88;;;18.34;53.78
55263;BME280;41125;48.752;9.168;2022-08-06T02:09:07;97431.38;;;18.43;53.34
55263;BME280;41125;48.752;9.168;2022-08-06T02:09:38;97437.34;;;18.46;53.16
55263;BME280;41125;48.752;9.168;2022-08-06T02:10:10;97438.81;;;18.43;53.29
55263;BME280;41125;48.752;9.168;2022-08-06T02:10:41;97438.34;;;18.41;53.54
55263;BME280;41125;48.752;9.168;2022-08-06T02:11:13;97434.47;;;18.42;53.58
55263;BME280;41125;48.752;9.168;2022-08-06T02:11:50;97447.72;;;18.40;53.94
55263;BME280;41125;48.752;9.168;2022-08-06T02:12:25;97435.41;;;18.46;52.87
55263;BME280;41125;48.752;9.168;2022-08-06T02:12:56;97442.00;;;18.54;52.74
55263;BME280;41125;48.752;9.168;2022-08-06T02:13:27;97446.03;;;18.56;52.45
55263;BME280;41125;48.752;9.168;2022-08-06T02:14:03;97438.78;;;18.52;52.97
55263;BME280;41125;48.752;9.168;2022-08-06T02:14:39;97448.69;;;18.44;52.82
55263;BME280;41125;48.752;9.168;2022-08-06T02:15:16;97441.75;;;18.38;53.42
55263;BME280;41125;48.752;9.168;2022-08-06T02:15:48;97439.53;;;18.31;53.36
55263;BME280;41125;48.752;9.168;2022-08-06T02:16:19;97440.34;;;18.32;53.49
55263;BME280;41125;48.752;9.168;2022-08-06T02:16:51;97438.72;;;18.31;53.46
55263;BME280;41125;48.752;9.168;2022-08-06T02:17:29;97434.19;;;18.35;53.14
55263;BME280;41125;48.752;9.168;2022-08-06T02:18:01;97434.94;;;18.44;52.58
55263;BME280;41125;48.752;9.168;2022-08-06T02:18:34;97438.66;;;18.48;52.82
55263;BME280;41125;48.752;9.168;2022-08-06T02:19:06;97437.03;;;18.47;52.76
55263;BME280;41125;48.752;9.168;2022-08-06T02:19:38;97432.53;;;18.42;52.98
55263;BME280;41125;48.752;9.168;2022-08-06T02:20:10;97442.22;;;18.40;52.78
55263;BME280;41125;48.752;9.168;2022-08-06T02:20:43;97439.53;;;18.31;52.98
55263;BME280;41125;48.752;9.168;2022-08-06T02:21:17;97442.13;;;18.28;53.01
55263;BME280;41125;48.752;9.168;2022-08-06T02:21:48;97446.50;;;18.29;53.43
55263;BME280;41125;48.752;9.168;2022-08-06T02:22:20;97444.88;;;18.28;53.30
55263;BME280;41125;48.752;9.168;2022-08-06T02:22:52;97451.03;;;18.25;53.86
55263;BME280;41125;48.752;9.168;2022-08-06T02:23:24;97448.63;;;18.23;53.57
55263;BME280;41125;48.752;9.168;2022-08-06T02:23:56;97455.41;;;18.26;54.01
55263;BME280;41125;48.752;9.168;2022-08-06T02:24:28;97454.09;;;18.32;53.63
55263;BME280;41125;48.752;9.168;2022-08-06T02:25:02;97452.47;;;18.31;53.51
55263;BME280;41125;48.752;9.168;2022-08-06T02:25:35;97446.25;;;18.42;52.59
55263;BME280;41125;48.752;9.168;2022-08-06T02:26:07;97452.56;;;18.43;52.93
55263;BME280;41125;48.752;9.168;2022-08-06T02:26:39;97452.88;;;18.41;53.06
55263;BME280;41125;48.752;9.168;2022-08-06T02:27:14;97445.63;;;18.37;53.09
55263;BME280;41125;48.752;9.168;2022-08-06T02:27:50;97451.34;;;18.32;53.01
55263;BME280;41125;48.752;9.168;2022-08-06T02:28:23;97455.87;;;18.28;53.26
55263;BME280;41125;48.752;9.168;2022-08-06T02:28:55;97453.31;;;18.23;53.34
55263;BME280;41125;48.752;9.168;2022-08-06T02:29:28;97449.28;;;18.20;53.47
55263;BME280;41125;48.752;9.168;2022-08-06T02:30:00;97436.72;;;18.40;52.62
55263;BME280;41125;48.752;9.168;2022-08-06T02:30:32;97445.75;;;18.49;52.33
55263;BME280;41125;48.752;9.168;2022-08-06T02:31:08;97438.66;;;18.48;52.31
55263;BME280;41125;48.752;9.168;2022-08-06T02:31:39;97441.56;;;18.43;52.57
55263;BME280;41125;48.752;9.168;2022-08-06T02:32:09;97435.13;;;18.39;52.63
55263;BME280;41125;48.752;9.168;2022-08-06T02:32:44;97443.56;;;18.34;53.85
55263;BME280;41125;48.752;9.168;2022-08-06T02:33:16;97442.63;;;18.30;53.59
55263;BME280;41125;48.752;9.168;2022-08-06T02:33:48;97436.66;;;18.28;53.44
55263;BME280;41125;48.752;9.168;2022-08-06T02:34:19;97443.13;;;18.23;53.80
55263;BME280;41125;48.752;9.168;2022-08-06T02:34:50;97453.97;;;18.20;53.76
55263;BME280;41125;48.752;9.168;2022-08-06T02:35:22;97447.03;;;18.14;53.75
55263;BME280;41125;48.752;9.168;2022-08-06T02:36:43;97443.25;;;18.35;53.05
55263;BME280;41125;48.752;9.168;2022-08-06T02:37:18;97447.47;;;18.33;52.91
55263;BME280;41125;48.752;9.168;2022-08-06T02:38:50;97448.47;;;18.20;53.66
55263;BME280;41125;48.752;9.168;2022-08-06T02:39:28;97447.50;;;18.16;54.08
55263;BME280;41125;48.752;9.168;2022-08-06T02:40:06;97444.75;;;18.16;53.90
55263;BME280;41125;48.752;9.168;2022-08-06T02:40:42;97445.09;;;18.14;54.26
55263;BME280;41125;48.752;9.168;2022-08-06T02:41:17;97453.50;;;18.09;54.13
55263;BME280;41125;48.752;9.168;2022-08-06T02:42:08;97453.34;;;18.05;54.24
55263;BME280;41125;48.752;9.168;2022-08-06T02:42:45;97462.22;;;18.02;54.63
55263;BME280;41125;48.752;9.168;2022-08-06T02:43:20;97464.16;;;18.02;54.65
55263;BME280;41125;48.752;9.168;2022-08-06T02:43:55;97458.56;;;17.98;55.10
55263;BME280;41125;48.752;9.168;2022-08-06T02:45:26;97458.41;;;17.95;55.59
55263;BME280;41125;48.752;9.168;2022-08-06T02:46:52;97456.13;;;17.97;54.28
55263;BME280;41125;48.752;9.168;2022-08-06T02:47:37;97453.72;;;17.95;54.31
55263;BME280;41125;48.752;9.168;2022-08-06T02:48:15;97455.16;;;17.93;54.77
55263;BME280;41125;48.752;9.168;2022-08-06T02:49:01;97461.47;;;17.93;54.64
55263;BME280;41125;48.752;9.168;2022-08-06T02:49:35;97465.81;;;17.94;54.78
55263;BME280;41125;48.752;9.168;2022-08-06T02:50:07;97452.69;;;18.08;53.62
55263;BME280;41125;48.752;9.168;2022-08-06T02:50:39;97452.69;;;18.08;53.89
55263;BME280;41125;48.752;9.168;2022-08-06T02:51:11;97455.75;;;18.07;54.07
55263;BME280;41125;48.752;9.168;2022-08-06T02:51:48;97453.34;;;18.05;54.51
55263;BME280;41125;48.752;9.168;2022-08-06T02:52:24;97464.31;;;18.05;54.35
55263;BME280;41125;48.752;9.168;2022-08-06T02:53:01;97461.09;;;18.03;54.41
55263;BME280;41125;48.752;9.168;2022-08-06T02:53:34;97465.34;;;18.01;54.63
55263;BME280;41125;48.752;9.168;2022-08-06T02:54:07;97467.94;;;17.97;54.62
55263;BME280;41125;48.752;9.168;2022-08-06T02:54:41;97464.22;;;17.93;54.73
55263;BME280;41125;48.752;9.168;2022-08-06T02:55:14;97470.84;;;17.92;55.57
55263;BME280;41125;48.752;9.168;2022-08-06T02:55:48;97463.41;;;18.01;54.39
55263;BME280;41125;48.752;9.168;2022-08-06T02:56:20;97457.09;;;18.01;54.36
55263;BME280;41125;48.752;9.168;2022-08-06T02:56:54;97468.09;;;18.01;54.56
55263;BME280;41125;48.752;9.168;2022-08-06T02:57:30;97465.50;;;17.96;54.62
55263;BME280;41125;48.752;9.168;2022-08-06T02:58:56;97469.87;;;17.88;55.36
55263;BME280;41125;48.752;9.168;2022-08-06T02:59:29;97466.00;;;17.89;55.41
55263;BME280;41125;48.752;9.168;2022-08-06T03:00:04;97469.06;;;17.88;55.87
55263;BME280;41125;48.752;9.168;2022-08-06T03:00:37;97462.13;;;17.90;55.26
55263;BME280;41125;48.752;9.168;2022-08-06T03:01:11;97458.25;;;17.91;55.33
55263;BME280;41125;48.752;9.168;2022-08-06T03:01:48;97464.53;;;17.92;55.39
55263;BME280;41125;48.752;9.168;2022-08-06T03:02:21;97463.56;;;17.96;55.23
55263;BME280;41125;48.752;9.168;2022-08-06T03:02:54;97464.69;;;17.95;55.01
55263;BME280;41125;48.752;9.168;2022-08-06T03:03:26;97461.47;;;17.93;55.15
55263;BME280;41125;48.752;9.168;2022-08-06T03:03:58;97458.25;;;17.91;54.92
55263;BME280;41125;48.752;9.168;2022-08-06T03:04:30;97458.91;;;17.88;55.13